Annamoriah, WV

10:26 PM EDT on July 05, 2015 (GMT -0400)
Reedy, WV | | Change Station
CLOSE
Current Station
Personal Weather Station
Location: Reedy, WV
Elevation: 750 ft
Nearby Weather Stations

Elev 750 ft 38.89 °N, 81.40 °W | Updated 39 seconds ago

Mostly Cloudy
Mostly Cloudy
70.2 °F
Feels Like 70.2 °F
N
0.0
Wind Variable Wind from SW
Gusts 6.0 mph

Today
High -- | Low -- °F
--% Chance of Precip.
Yesterday
High -- | Low -- °F
Precip. -- in
6:05 AM 8:53 PM
Waning Gibbous, 80% visible
Pressure 30.07 in
Visibility 7.0 miles
Clouds Clear
Dew Point 68 °F
Humidity 94%
Rainfall 0.00 in
Snow Depth Not available.
UV 0 out of 12
Pollen 2.70 out of 12
Air Quality Not available.
Flu Activity Not available.
METAR KPKB 060153Z 00000KT 7SM CLR 23/21 A3009 RMK AO2 SLP182 T02330206

More Conditions Fewer Conditions

Pressure 30.07 in
Visibility 7.0 miles
Clouds Clear
Dew Point 68 °F
Humidity 94%
Rainfall 0.00 in
Snow Depth Not available.
UV 0 out of 12
Pollen 2.70 out of 12
Air Quality Not available.
Flu Activity Not available.
METAR KPKB 060153Z 00000KT 7SM CLR 23/21 A3009 RMK AO2 SLP182 T02330206

More Conditions Fewer Conditions

10-Day Weather Forecast

×

Almanac

Astronomy

Jul. 05, 2015 Rise Set
Actual Time
Civil Twilight
Nautical Twilight
Astronomical Twilight
Moon
Length of Visible Light
Length of Day
Tomorrow will be .
, % of the Moon is Illuminated

Today's Extremes

State Highs State Lows

Community

WunderPhotos

Upload Photos

1,835,451 photos uploaded!

WunderBlogs® & News

Nearby

Air Quality

  Air Quality AQ Index Pollutant
Not available.

Snow Depth

Station Depth Elevation

Earthquake Activity

City Distance Mag. Time & Date
Minimum magnitude displayed is 2.5.

Coastal Water Temperatures

Place Temperature

Stations

Nearby Weather Stations

Station Location Temp. Windchill Dew Point Humidity Wind Precip. Elev Updated Type